createdAt,value
2023-04-09T00:04:21.174Z,50.28
2023-04-09T00:09:43.123Z,50.05
2023-04-09T00:15:05.098Z,49.84
2023-04-09T00:20:27.087Z,50.25
2023-04-09T00:25:49.110Z,49.92
2023-04-09T00:31:11.134Z,50.08
2023-04-09T00:36:33.098Z,50.27
2023-04-09T00:41:55.086Z,50.20
2023-04-09T00:47:17.072Z,50.21
2023-04-09T00:52:39.084Z,50.16
2023-04-09T00:58:01.098Z,49.86
2023-04-09T01:03:23.131Z,50.05
2023-04-09T01:09:01.099Z,50.05
2023-04-09T01:14:32.056Z,50.23
2023-04-09T01:20:39.070Z,50.22
2023-04-09T01:26:42.071Z,50.26
2023-04-09T01:32:06.058Z,50.43
2023-04-09T01:37:30.056Z,50.36
2023-04-09T01:42:53.072Z,50.31
2023-04-09T01:48:16.075Z,50.01
2023-04-09T01:53:38.046Z,49.92
2023-04-09T01:59:00.068Z,49.94
2023-04-09T02:04:33.061Z,49.90
2023-04-09T02:09:56.054Z,49.85
2023-04-09T02:15:20.067Z,49.88
2023-04-09T02:20:42.062Z,49.75
2023-04-09T02:26:06.037Z,49.90
2023-04-09T02:31:28.071Z,49.63
2023-04-09T02:36:50.051Z,49.61
2023-04-09T02:42:14.054Z,49.82
2023-04-09T02:47:37.079Z,49.58
2023-04-09T02:52:59.051Z,49.76
2023-04-09T02:58:21.064Z,49.81
2023-04-09T03:03:44.264Z,49.72
2023-04-09T03:09:06.039Z,49.88
2023-04-09T03:14:28.040Z,49.84
2023-04-09T03:19:50.040Z,50.75
2023-04-09T03:25:12.049Z,50.42
2023-04-09T03:30:35.035Z,50.50
2023-04-09T03:35:57.091Z,50.97
2023-04-09T03:41:30.031Z,50.98
2023-04-09T03:46:55.090Z,51.10
2023-04-09T03:52:17.025Z,51.07
2023-04-09T03:57:47.068Z,51.45
2023-04-09T04:03:15.165Z,51.09
2023-04-09T04:08:55.152Z,50.90
2023-04-09T04:14:28.025Z,51.14
2023-04-09T04:19:58.022Z,51.03
2023-04-09T04:25:25.018Z,51.31
2023-04-09T04:30:49.032Z,51.36
2023-04-09T04:36:24.992Z,51.40
2023-04-09T04:41:46.990Z,51.03
2023-04-09T04:47:12.033Z,51.00
2023-04-09T04:52:34.012Z,51.20
2023-04-09T04:57:57.002Z,51.34
2023-04-09T05:03:28.107Z,51.35
2023-04-09T05:09:11.021Z,51.21
2023-04-09T05:14:44.999Z,51.20
2023-04-09T05:20:08.045Z,51.27
2023-04-09T05:25:49.988Z,51.27
2023-04-09T05:31:30.999Z,51.75
2023-04-09T05:36:56.992Z,52.06
2023-04-09T05:42:19.996Z,51.79
2023-04-09T05:47:55.036Z,52.11
2023-04-09T05:53:17.976Z,52.45
2023-04-09T05:58:39.971Z,52.53
2023-04-09T06:04:02.369Z,52.64
2023-04-09T06:09:23.993Z,52.54
2023-04-09T06:14:46.004Z,52.89
2023-04-09T06:20:07.982Z,52.42
2023-04-09T06:25:29.980Z,52.48
2023-04-09T06:30:52.027Z,52.44
2023-04-09T06:36:14.056Z,52.41
2023-04-09T06:41:35.980Z,52.82
2023-04-09T06:47:16.985Z,52.72
2023-04-09T06:52:38.973Z,52.47
2023-04-09T06:58:00.961Z,52.19
2023-04-09T07:03:23.050Z,52.13
2023-04-09T07:08:44.978Z,52.13
2023-04-09T07:14:06.983Z,52.14
2023-04-09T07:19:28.966Z,52.05
2023-04-09T07:24:50.939Z,52.41
2023-04-09T07:30:12.956Z,52.34
2023-04-09T07:35:34.992Z,52.11
2023-04-09T07:40:56.950Z,51.82
2023-04-09T07:46:25.042Z,52.22
2023-04-09T07:51:46.968Z,51.73
2023-04-09T07:57:08.950Z,51.79
2023-04-09T08:02:31.297Z,51.46
2023-04-09T08:07:52.940Z,51.33
2023-04-09T08:13:21.935Z,51.33
2023-04-09T08:18:43.945Z,51.42
2023-04-09T08:24:10.938Z,51.58
2023-04-09T08:29:32.920Z,51.85
2023-04-09T08:34:54.928Z,51.77
2023-04-09T08:40:17.940Z,51.29
2023-04-09T08:45:40.033Z,51.39
2023-04-09T08:51:01.964Z,51.50
2023-04-09T08:56:23.957Z,50.20
2023-04-09T09:01:46.025Z,49.81
2023-04-09T09:07:08.009Z,49.77
2023-04-09T09:12:47.925Z,49.71
2023-04-09T09:18:09.942Z,49.45
2023-04-09T09:23:47.933Z,48.63
2023-04-09T09:29:10.895Z,48.69
2023-04-09T09:34:34.958Z,48.54
2023-04-09T09:39:56.924Z,48.46
2023-04-09T09:45:30.912Z,48.29
2023-04-09T09:50:54.922Z,48.16
2023-04-09T09:56:20.937Z,47.76
2023-04-09T10:01:43.953Z,47.87
2023-04-09T10:07:05.962Z,47.76
2023-04-09T10:12:31.951Z,47.43
2023-04-09T10:17:53.947Z,47.83
2023-04-09T10:23:21.974Z,47.67
2023-04-09T10:28:43.926Z,47.90
2023-04-09T10:34:11.068Z,47.79
2023-04-09T10:39:32.942Z,47.54
2023-04-09T10:45:10.902Z,47.13
2023-04-09T10:50:38.905Z,46.84
2023-04-09T10:56:01.955Z,46.34
2023-04-09T11:01:16.936Z,46.61
2023-04-09T11:06:39.898Z,45.86
2023-04-09T11:12:03.900Z,46.22
2023-04-09T11:17:26.907Z,46.18
2023-04-09T11:22:48.909Z,45.83
2023-04-09T11:28:10.901Z,45.59
2023-04-09T11:33:40.900Z,45.49
2023-04-09T11:39:02.891Z,45.34
2023-04-09T11:44:24.886Z,45.46
2023-04-09T11:49:46.903Z,45.22
2023-04-09T11:55:10.917Z,45.22
2023-04-09T12:00:33.887Z,45.32
2023-04-09T12:05:55.895Z,45.31
2023-04-09T12:11:21.917Z,45.26
2023-04-09T12:16:43.919Z,44.71
2023-04-09T12:22:07.897Z,44.83
2023-04-09T12:27:30.240Z,44.20
2023-04-09T12:32:52.962Z,44.28
2023-04-09T12:38:14.889Z,43.61
2023-04-09T12:43:36.859Z,42.44
2023-04-09T12:48:58.884Z,42.69
2023-04-09T12:54:20.864Z,42.11
2023-04-09T12:59:42.874Z,42.64
2023-04-09T13:05:04.873Z,41.80
2023-04-09T13:10:26.871Z,41.42
2023-04-09T13:15:51.870Z,41.75
2023-04-09T13:21:13.859Z,41.54
2023-04-09T13:26:35.872Z,41.06
2023-04-09T13:31:57.892Z,40.77
2023-04-09T13:37:19.873Z,40.96
2023-04-09T13:42:41.839Z,40.79
2023-04-09T13:48:03.895Z,40.26
2023-04-09T13:53:26.866Z,40.02
2023-04-09T13:58:49.941Z,39.76
2023-04-09T14:04:11.903Z,39.76
2023-04-09T14:09:33.855Z,40.37
2023-04-09T14:14:56.845Z,40.52
2023-04-09T14:20:18.846Z,41.10
2023-04-09T14:25:40.850Z,40.83
2023-04-09T14:31:02.864Z,40.95
2023-04-09T14:36:24.862Z,40.89
2023-04-09T14:41:46.832Z,41.26
2023-04-09T14:47:08.885Z,41.75
2023-04-09T14:52:30.850Z,41.90
2023-04-09T14:57:52.855Z,42.06
2023-04-09T15:03:15.108Z,41.13
2023-04-09T15:08:36.873Z,40.14
2023-04-09T15:14:14.852Z,39.94
2023-04-09T15:19:37.850Z,40.59
2023-04-09T15:24:59.854Z,40.84
2023-04-09T15:30:21.839Z,40.89
2023-04-09T15:35:43.877Z,41.09
2023-04-09T15:41:05.862Z,41.27
2023-04-09T15:46:27.824Z,40.82
2023-04-09T15:51:49.832Z,40.59
2023-04-09T15:57:11.838Z,41.36
2023-04-09T16:02:33.872Z,40.67
2023-04-09T16:07:58.281Z,40.53
2023-04-09T16:13:20.844Z,40.39
2023-04-09T16:18:42.829Z,40.03
2023-04-09T16:24:04.843Z,39.72
2023-04-09T16:29:26.818Z,38.91
2023-04-09T16:34:48.824Z,38.69
2023-04-09T16:40:10.827Z,37.94
2023-04-09T16:45:32.860Z,37.42
2023-04-09T16:50:54.831Z,36.77
2023-04-09T16:56:16.867Z,36.76
2023-04-09T17:01:38.873Z,36.11
2023-04-09T17:07:00.827Z,35.80
2023-04-09T17:12:22.812Z,35.46
2023-04-09T17:17:44.865Z,35.26
2023-04-09T17:23:06.810Z,34.92
2023-04-09T17:28:28.802Z,34.96
2023-04-09T17:33:50.819Z,34.59
2023-04-09T17:39:12.840Z,34.50
2023-04-09T17:44:34.819Z,34.44
2023-04-09T17:49:56.818Z,34.52
2023-04-09T17:55:25.805Z,34.46
2023-04-09T18:00:47.799Z,35.10
2023-04-09T18:06:02.837Z,35.24
2023-04-09T18:11:24.810Z,35.56
2023-04-09T18:16:46.807Z,35.91
2023-04-09T18:22:08.779Z,36.04
2023-04-09T18:27:31.046Z,36.39
2023-04-09T18:32:54.836Z,36.57
2023-04-09T18:38:16.802Z,36.64
2023-04-09T18:43:41.877Z,36.97
2023-04-09T18:49:05.433Z,37.34
2023-04-09T18:54:27.029Z,37.53
2023-04-09T18:59:51.798Z,37.71
2023-04-09T19:05:13.799Z,37.92
2023-04-09T19:10:35.805Z,37.99
2023-04-09T19:15:57.849Z,38.03
2023-04-09T19:21:19.828Z,38.19
2023-04-09T19:26:41.797Z,38.74
2023-04-09T19:32:03.805Z,38.88
2023-04-09T19:37:25.836Z,39.53
2023-04-09T19:42:47.805Z,39.66
2023-04-09T19:48:09.869Z,40.03
2023-04-09T19:53:31.786Z,39.88
2023-04-09T19:58:55.040Z,40.44
2023-04-09T20:04:16.803Z,40.46
2023-04-09T20:09:38.775Z,40.40
2023-04-09T20:15:09.696Z,40.80
2023-04-09T20:20:31.788Z,41.30
2023-04-09T20:25:53.774Z,41.57
2023-04-09T20:31:15.778Z,41.49
2023-04-09T20:36:37.931Z,42.07
2023-04-09T20:41:59.800Z,42.01
2023-04-09T20:47:21.810Z,42.27
2023-04-09T20:52:43.765Z,42.09
2023-04-09T20:58:06.771Z,42.11
2023-04-09T21:03:28.941Z,42.30
2023-04-09T21:08:50.829Z,42.30
2023-04-09T21:14:13.762Z,42.29
2023-04-09T21:19:35.765Z,42.58
2023-04-09T21:25:00.782Z,42.57
2023-04-09T21:30:22.763Z,42.63
2023-04-09T21:35:44.752Z,42.47
2023-04-09T21:41:06.760Z,43.00
2023-04-09T21:46:28.808Z,43.00
2023-04-09T21:51:51.779Z,42.93
2023-04-09T21:57:13.742Z,42.71
2023-04-09T22:02:35.895Z,42.74
2023-04-09T22:07:57.757Z,42.76
2023-04-09T22:13:19.770Z,42.77
2023-04-09T22:18:41.763Z,43.08
2023-04-09T22:24:03.764Z,42.76
2023-04-09T22:29:25.744Z,43.14
2023-04-09T22:34:47.753Z,42.96
2023-04-09T22:40:09.746Z,42.94
2023-04-09T22:45:33.765Z,43.24
2023-04-09T22:50:56.757Z,43.33
2023-04-09T22:56:18.737Z,43.44
2023-04-09T23:01:40.813Z,43.23
2023-04-09T23:07:02.764Z,43.41
2023-04-09T23:12:24.752Z,43.24
2023-04-09T23:17:47.820Z,43.37
2023-04-09T23:23:09.736Z,43.29
2023-04-09T23:28:31.750Z,43.46
2023-04-09T23:33:53.863Z,43.39
2023-04-09T23:39:15.716Z,43.65
2023-04-09T23:44:38.736Z,43.97
2023-04-09T23:50:00.735Z,43.71
2023-04-09T23:55:29.745Z,43.85
